Time;durP1;ratioP1;P1;durP2;ratioP2;P2;SDS_P1;SDS_P2;PMS_P1;PMS_P2;Temp;Humidity;BMP_temperature;BMP_pressure;BME280_temperature;BME280_humidity;BME280_pressure;Samples;Min_cycle;Max_cycle;Signal;HPM_P1;HPM_P2
2021/09/10 00:00:28;;;;;;;;;;;;;;;17.28;72.06;99496.66;3310923;29;19978;-73
2021/09/10 00:02:08;;;;;;;;;;;;;;;17.30;72.28;99502.63;3312082;29;19929;-73
2021/09/10 00:03:49;;;;;;;;;;;;;;;17.31;72.20;99507.75;3311440;29;19929;-73
2021/09/10 00:05:29;;;;;;;;;;;;;;;17.29;72.06;99503.66;3312118;29;19935;-73
2021/09/10 00:07:11;;;;;;;;;;;;;;;17.28;71.89;99502.84;3311983;29;19954;-73
2021/09/10 00:08:51;;;;;;;;;;;;;;;17.27;72.18;99509.31;3311254;29;19929;-73
2021/09/10 00:10:32;;;;;;;;;;;;;;;17.25;72.21;99497.94;3311920;29;19936;-73
2021/09/10 00:12:13;;;;;;;;;;;;;;;17.22;71.87;99503.81;3312225;29;19936;-73
2021/09/10 00:13:53;;;;;;;;;;;;;;;17.22;72.17;99498.44;3311401;29;20292;-71
2021/09/10 00:15:34;;;;;;;;;;;;;;;17.23;72.29;99494.66;3312087;29;20055;-71
2021/09/10 00:17:14;;;;;;;;;;;;;;;17.23;72.46;99494.66;3308087;29;19930;-72
2021/09/10 00:18:55;;;;;;;;;;;;;;;17.22;72.20;99501.13;3303160;29;20428;-72
2021/09/10 00:20:35;;;;;;;;;;;;;;;17.20;72.18;99490.59;3314256;29;19978;-72
2021/09/10 00:22:16;;;;;;;;;;;;;;;17.22;72.00;99498.44;3302718;29;19929;-71
2021/09/10 00:23:56;;;;;;;;;;;;;;;17.22;72.13;99493.06;3301749;29;19933;-71
2021/09/10 00:25:37;;;;;;;;;;;;;;;17.23;72.53;99495.47;3301723;29;19933;-71
2021/09/10 00:27:17;;;;;;;;;;;;;;;17.23;72.08;99494.66;3301724;29;20067;-71
2021/09/10 00:28:58;;;;;;;;;;;;;;;17.21;72.26;99494.09;3314516;29;19929;-71
2021/09/10 00:30:38;;;;;;;;;;;;;;;17.19;72.32;99498.91;3316391;29;20389;-73
2021/09/10 00:32:19;;;;;;;;;;;;;;;17.18;71.97;99492.69;3314326;29;19929;-73
2021/09/10 00:33:59;;;;;;;;;;;;;;;17.19;72.41;99499.75;3314217;29;19929;-71
2021/09/10 00:35:40;;;;;;;;;;;;;;;17.18;72.30;99497.28;3314366;29;19929;-72
2021/09/10 00:37:20;;;;;;;;;;;;;;;17.16;72.33;99505.59;3312881;29;20306;-72
2021/09/10 00:39:01;;;;;;;;;;;;;;;17.15;72.18;99487.81;3307927;29;20024;-72
2021/09/10 00:40:41;;;;;;;;;;;;;;;17.15;72.48;99493.19;3301500;29;21166;-71
2021/09/10 00:42:22;;;;;;;;;;;;;;;17.15;72.62;99487.00;3301538;29;19934;-71
2021/09/10 00:44:03;;;;;;;;;;;;;;;17.15;72.22;99489.69;3304716;29;19933;-71
2021/09/10 00:45:44;;;;;;;;;;;;;;;17.16;72.33;99489.44;3312642;29;20312;-71
2021/09/10 00:47:24;;;;;;;;;;;;;;;17.15;72.24;99489.69;3313888;29;19937;-71
2021/09/10 00:49:06;;;;;;;;;;;;;;;17.15;72.09;99493.19;3305957;29;19929;-70
2021/09/10 00:50:48;;;;;;;;;;;;;;;17.16;72.42;99488.63;3301460;30;20028;-70
2021/09/10 00:52:28;;;;;;;;;;;;;;;17.17;72.37;99490.28;3301513;29;19929;-71
2021/09/10 00:54:09;;;;;;;;;;;;;;;17.16;72.22;99489.44;3301382;29;20367;-73
2021/09/10 00:55:49;;;;;;;;;;;;;;;17.18;72.44;99487.31;3301418;29;19929;-72
2021/09/10 00:57:30;;;;;;;;;;;;;;;17.20;71.90;99489.78;3301542;29;19991;-72
2021/09/10 00:59:10;;;;;;;;;;;;;;;17.21;72.11;99486.00;3305458;29;19933;-73
2021/09/10 01:00:51;;;;;;;;;;;;;;;17.23;72.32;99484.72;3313584;29;19984;-73
2021/09/10 01:02:32;;;;;;;;;;;;;;;17.25;72.15;99481.78;3313666;29;19936;-72
2021/09/10 01:04:13;;;;;;;;;;;;;;;17.25;72.17;99481.78;3313780;29;19983;-72
2021/09/10 01:05:53;;;;;;;;;;;;;;;17.27;72.15;99486.91;3324384;29;19929;-73
2021/09/10 01:07:34;;;;;;;;;;;;;;;17.28;72.24;99486.69;3312677;29;19936;-72
2021/09/10 01:09:14;;;;;;;;;;;;;;;17.29;72.15;99491.00;3321076;29;19933;-72
2021/09/10 01:10:55;;;;;;;;;;;;;;;17.29;72.02;99488.31;3315657;29;20027;-72
2021/09/10 01:12:35;;;;;;;;;;;;;;;17.30;72.33;99486.44;3313866;29;19933;-73
2021/09/10 01:14:16;;;;;;;;;;;;;;;17.30;72.23;99486.44;3312488;29;20020;-73
2021/09/10 01:15:57;;;;;;;;;;;;;;;17.31;72.20;99491.56;3313182;29;19929;-71
2021/09/10 01:17:38;;;;;;;;;;;;;;;17.30;72.13;99489.94;3304479;29;19962;-73
2021/09/10 01:19:27;;;;;;;;;;;;;;;17.31;71.94;99483.50;3301995;29;19954;-73
2021/09/10 01:21:07;;;;;;;;;;;;;;;17.32;72.08;99487.84;3301344;29;19933;-73
2021/09/10 01:22:48;;;;;;;;;;;;;;;17.33;72.21;99485.97;3301151;29;19982;-73
2021/09/10 01:24:32;;;;;;;;;;;;;;;17.32;72.29;99487.84;3312613;29;20460;-73
2021/09/10 01:26:12;;;;;;;;;;;;;;;17.33;72.25;99480.56;3303209;29;20028;-72
2021/09/10 01:27:57;;;;;;;;;;;;;;;17.34;71.96;99483.00;3303939;29;19933;-73
2021/09/10 01:29:37;;;;;;;;;;;;;;;17.35;72.23;99481.97;3307957;29;20016;-72
2021/09/10 01:31:18;;;;;;;;;;;;;;;17.36;72.06;99486.28;3300460;29;20359;-73
2021/09/10 01:33:02;;;;;;;;;;;;;;;17.39;71.84;99482.28;3301081;29;20441;-73
2021/09/10 01:34:43;;;;;;;;;;;;;;;17.38;71.95;99483.34;3313505;29;19928;-73
2021/09/10 01:36:23;;;;;;;;;;;;;;;17.36;71.67;99483.59;3313333;29;19925;-73
2021/09/10 01:38:04;;;;;;;;;;;;;;;17.36;72.09;99483.59;3313388;29;19979;-71
2021/09/10 01:39:45;;;;;;;;;;;;;;;17.36;71.98;99478.19;3304079;29;19925;-71
2021/09/10 01:41:25;;;;;;;;;;;;;;;17.35;71.82;99476.56;3300521;30;19929;-73
2021/09/10 01:43:06;;;;;;;;;;;;;;;17.36;71.80;99478.19;3301089;29;19930;-72
2021/09/10 01:44:47;;;;;;;;;;;;;;;17.36;71.60;99477.38;3310342;29;19951;-72
2021/09/10 01:46:28;;;;;;;;;;;;;;;17.36;71.81;99472.00;3312994;29;19936;-71
2021/09/10 01:48:08;;;;;;;;;;;;;;;17.35;71.62;99475.75;3312869;29;19925;-71
2021/09/10 01:49:49;;;;;;;;;;;;;;;17.34;71.67;99480.31;3311215;29;19936;-75
2021/09/10 01:51:30;;;;;;;;;;;;;;;17.35;71.90;99470.38;3312014;29;19936;-74
2021/09/10 01:53:11;;;;;;;;;;;;;;;17.36;71.70;99478.19;3312252;29;19964;-73
2021/09/10 01:54:51;;;;;;;;;;;;;;;17.37;71.84;99476.31;3313157;29;19936;-74
2021/09/10 01:56:32;;;;;;;;;;;;;;;17.37;71.67;99469.06;3313211;29;20332;-73
2021/09/10 01:58:13;;;;;;;;;;;;;;;17.37;71.77;99473.63;3313168;29;19929;-73
2021/09/10 01:59:53;;;;;;;;;;;;;;;17.34;71.51;99472.22;3308915;29;19929;-72
2021/09/10 02:01:35;;;;;;;;;;;;;;;17.31;71.56;99464.63;3313130;29;20310;-74
2021/09/10 02:03:15;;;;;;;;;;;;;;;17.30;71.78;99465.72;3312869;29;20346;-74
2021/09/10 02:04:56;;;;;;;;;;;;;;;17.31;71.77;99467.34;3312566;29;19995;-73
2021/09/10 02:06:36;;;;;;;;;;;;;;;17.33;71.71;99467.91;3324658;29;20355;-73
2021/09/10 02:08:17;;;;;;;;;;;;;;;17.36;72.01;99469.31;3314550;29;20457;-73
2021/09/10 02:09:58;;;;;;;;;;;;;;;17.37;71.98;99469.06;3305244;29;19936;-73
2021/09/10 02:11:39;;;;;;;;;;;;;;;17.39;71.94;99477.69;3299607;30;19936;-73
2021/09/10 02:13:21;;;;;;;;;;;;;;;17.40;71.79;99473.97;3300057;29;20032;-73
2021/09/10 02:15:02;;;;;;;;;;;;;;;17.43;71.73;99467.28;3300174;29;20317;-73
2021/09/10 02:16:45;;;;;;;;;;;;;;;17.43;71.55;99467.28;3299774;29;19935;-72
2021/09/10 02:18:25;;;;;;;;;;;;;;;17.41;71.80;99462.13;3300113;30;19929;-72
2021/09/10 02:20:07;;;;;;;;;;;;;;;17.41;71.61;99464.00;3306816;29;19960;-73
2021/09/10 02:21:49;;;;;;;;;;;;;;;17.39;71.81;99456.16;3306862;29;19978;-75
2021/09/10 02:23:30;;;;;;;;;;;;;;;17.37;71.47;99460.97;3300016;29;20016;-73
2021/09/10 02:25:11;;;;;;;;;;;;;;;17.35;71.67;99468.50;3299206;29;20325;-72
2021/09/10 02:26:52;;;;;;;;;;;;;;;17.32;71.84;99463.59;3296448;30;20029;-72
2021/09/10 02:28:32;;;;;;;;;;;;;;;17.34;71.69;99457.94;3299744;30;19930;-73
2021/09/10 02:30:13;;;;;;;;;;;;;;;17.36;71.65;99455.84;3300935;29;19952;-74
2021/09/10 02:31:53;;;;;;;;;;;;;;;17.35;71.80;99460.41;3300002;29;19930;-73
2021/09/10 02:33:34;;;;;;;;;;;;;;;17.32;71.97;99458.22;3300098;29;19936;-74
2021/09/10 02:35:14;;;;;;;;;;;;;;;17.30;71.66;99462.22;3309611;29;19954;-73
2021/09/10 02:36:56;;;;;;;;;;;;;;;17.29;71.62;99460.56;3310958;29;20032;-72
2021/09/10 02:38:36;;;;;;;;;;;;;;;17.32;71.81;99462.75;3312157;29;20193;-73
2021/09/10 02:40:17;;;;;;;;;;;;;;;17.35;71.93;99460.41;3302815;29;19936;-72
2021/09/10 02:41:57;;;;;;;;;;;;;;;17.36;72.03;99459.34;3309909;29;19936;-71
2021/09/10 02:43:38;;;;;;;;;;;;;;;17.37;71.95;99460.97;3312213;29;20094;-71
2021/09/10 02:45:18;;;;;;;;;;;;;;;17.38;71.55;99465.31;3324021;29;19958;-72
2021/09/10 02:46:59;;;;;;;;;;;;;;;17.37;71.49;99468.22;3314992;29;19983;-72
2021/09/10 02:48:39;;;;;;;;;;;;;;;17.33;71.80;99465.22;3312260;29;19929;-72
2021/09/10 02:50:20;;;;;;;;;;;;;;;17.35;72.02;99464.97;3310510;29;19929;-71
2021/09/10 02:52:03;;;;;;;;;;;;;;;17.37;71.92;99466.38;3312527;29;19929;-71
2021/09/10 02:53:44;;;;;;;;;;;;;;;17.38;71.91;99459.91;3311895;29;20409;-71
2021/09/10 02:55:25;;;;;;;;;;;;;;;17.39;71.89;99460.72;3312384;29;19962;-72
2021/09/10 02:57:06;;;;;;;;;;;;;;;17.40;71.78;99468.56;3312210;29;19925;-72
2021/09/10 02:58:47;;;;;;;;;;;;;;;17.40;71.54;99468.56;3311407;29;19936;-72
2021/09/10 03:00:29;;;;;;;;;;;;;;;17.41;71.62;99480.97;3308635;29;20433;-73
2021/09/10 03:02:10;;;;;;;;;;;;;;;17.38;71.71;99476.06;3299831;29;19966;-72
2021/09/10 03:03:50;;;;;;;;;;;;;;;17.36;71.76;99472.00;3299859;29;20287;-73
2021/09/10 03:05:32;;;;;;;;;;;;;;;17.35;71.35;99481.97;3299865;29;19986;-72
2021/09/10 03:07:12;;;;;;;;;;;;;;;17.36;71.75;99480.06;3299953;29;19938;-73
2021/09/10 03:08:53;;;;;;;;;;;;;;;17.38;71.45;99484.16;3300661;29;19929;-74
2021/09/10 03:10:33;;;;;;;;;;;;;;;17.41;71.94;99478.28;3300105;29;19941;-74
2021/09/10 03:12:14;;;;;;;;;;;;;;;17.41;71.57;99485.53;3299974;29;19959;-75
2021/09/10 03:13:55;;;;;;;;;;;;;;;17.40;71.69;99490.13;3297255;30;19929;-75
2021/09/10 03:15:35;;;;;;;;;;;;;;;17.42;71.62;99479.94;3308204;29;19936;-76
2021/09/10 03:17:16;;;;;;;;;;;;;;;17.46;71.77;99484.81;3311671;29;20317;-73
2021/09/10 03:18:56;;;;;;;;;;;;;;;17.49;71.70;99484.31;3309951;29;19929;-74
2021/09/10 03:20:37;;;;;;;;;;;;;;;17.48;71.49;99488.06;3299927;29;19986;-75
2021/09/10 03:22:18;;;;;;;;;;;;;;;17.47;71.54;99484.56;3299915;29;20557;-74
2021/09/10 03:23:58;;;;;;;;;;;;;;;17.48;71.42;99493.44;3309696;29;20365;-73
2021/09/10 03:25:39;;;;;;;;;;;;;;;17.47;71.35;99494.53;3312001;29;19930;-73
2021/09/10 03:27:19;;;;;;;;;;;;;;;17.47;71.21;99491.84;3311611;29;19929;-73
2021/09/10 03:29:00;;;;;;;;;;;;;;;17.47;71.19;99495.34;3310471;29;19971;-72
2021/09/10 03:30:40;;;;;;;;;;;;;;;17.47;71.53;99489.13;3299679;29;19930;-74
2021/09/10 03:32:21;;;;;;;;;;;;;;;17.48;71.51;99499.69;3307022;29;19929;-75
2021/09/10 03:34:01;;;;;;;;;;;;;;;17.48;71.47;99488.06;3311648;29;20408;-73
2021/09/10 03:35:42;;;;;;;;;;;;;;;17.49;71.31;99489.72;3311052;29;19935;-74
2021/09/10 03:37:22;;;;;;;;;;;;;;;17.50;71.50;99494.84;3311773;29;19929;-74
2021/09/10 03:39:03;;;;;;;;;;;;;;;17.54;71.32;99490.59;3309230;29;19938;-73
2021/09/10 03:40:43;;;;;;;;;;;;;;;17.56;71.44;99485.00;3304680;29;19929;-73
2021/09/10 03:42:27;;;;;;;;;;;;;;;17.59;71.15;99487.19;3299464;29;20401;-74
2021/09/10 03:44:08;;;;;;;;;;;;;;;17.61;70.92;99495.84;3299233;29;19929;-73
2021/09/10 03:45:49;;;;;;;;;;;;;;;17.63;71.51;99494.53;3299355;29;20352;-74
2021/09/10 03:47:30;;;;;;;;;;;;;;;17.64;71.31;99489.97;3299823;29;19929;-73
2021/09/10 03:49:10;;;;;;;;;;;;;;;17.64;71.32;99490.78;3301719;29;19929;-74
2021/09/10 03:50:51;;;;;;;;;;;;;;;17.63;71.21;99499.94;3310246;29;19929;-73
2021/09/10 03:52:31;;;;;;;;;;;;;;;17.66;71.30;99499.44;3311985;29;20350;-74
2021/09/10 03:54:12;;;;;;;;;;;;;;;17.66;71.32;99493.22;3312876;29;20028;-73
2021/09/10 03:55:52;;;;;;;;;;;;;;;17.63;70.95;99493.69;3314391;29;20305;-74
2021/09/10 03:57:33;;;;;;;;;;;;;;;17.63;71.09;99488.31;3314492;29;20367;-74
2021/09/10 03:59:13;;;;;;;;;;;;;;;17.61;71.37;99495.84;3314211;29;19985;-74
2021/09/10 04:00:54;;;;;;;;;;;;;;;17.61;71.36;99496.66;3311679;29;20396;-74
2021/09/10 04:02:35;;;;;;;;;;;;;;;17.64;71.39;99496.16;3314338;29;20298;-74
2021/09/10 04:04:17;;;;;;;;;;;;;;;17.68;71.28;99491.09;3312633;29;20288;-74
2021/09/10 04:05:57;;;;;;;;;;;;;;;17.70;71.27;99499.75;3311478;29;19932;-77
2021/09/10 04:07:40;;;;;;;;;;;;;;;17.74;71.20;99506.28;3312418;29;20020;-76
2021/09/10 04:09:23;;;;;;;;;;;;;;;17.75;71.18;99509.78;3313285;29;20397;-76
2021/09/10 04:11:03;;;;;;;;;;;;;;;17.76;70.99;99523.03;3323224;29;19932;-75
2021/09/10 04:12:45;;;;;;;;;;;;;;;17.80;71.09;99521.50;3316594;29;19936;-77
2021/09/10 04:14:25;;;;;;;;;;;;;;;17.82;71.15;99519.38;3314126;29;20444;-78
2021/09/10 04:16:06;;;;;;;;;;;;;;;17.85;70.88;99518.88;3314381;29;19983;-77
2021/09/10 04:17:46;;;;;;;;;;;;;;;17.85;71.18;99518.88;3314220;29;19956;-77
2021/09/10 04:19:27;;;;;;;;;;;;;;;17.84;71.15;99511.06;3314149;29;20024;-78
2021/09/10 04:21:07;;;;;;;;;;;;;;;17.83;71.07;99514.81;3314147;29;20275;-78
2021/09/10 04:22:49;;;;;;;;;;;;;;;17.80;70.91;99521.50;3314085;29;19936;-76
2021/09/10 04:24:29;;;;;;;;;;;;;;;17.77;71.22;99527.38;3312979;29;19929;-78
2021/09/10 04:26:10;;;;;;;;;;;;;;;17.80;71.19;99532.28;3315085;29;19985;-77
2021/09/10 04:27:50;;;;;;;;;;;;;;;17.84;71.38;99533.44;3314935;29;20339;-77
2021/09/10 04:29:31;;;;;;;;;;;;;;;17.85;70.94;99529.66;3317296;29;20008;-76
2021/09/10 04:31:12;;;;;;;;;;;;;;;17.87;71.22;99524.84;3307346;29;20463;-77
2021/09/10 04:32:52;;;;;;;;;;;;;;;17.94;71.09;99538.19;3302388;29;20421;-76
2021/09/10 04:34:33;;;;;;;;;;;;;;;17.95;70.87;99533.59;3301875;29;19937;-77
2021/09/10 04:36:13;;;;;;;;;;;;;;;17.98;71.09;99530.41;3302073;29;20068;-77
2021/09/10 04:37:54;;;;;;;;;;;;;;;18.01;71.22;99528.00;3310570;29;20020;-77
2021/09/10 04:39:34;;;;;;;;;;;;;;;18.03;70.94;99535.88;3314760;29;19925;-78
2021/09/10 04:41:15;;;;;;;;;;;;;;;18.06;70.78;99528.09;3314266;29;19929;-76
2021/09/10 04:42:55;;;;;;;;;;;;;;;18.09;70.68;99534.88;3304124;29;20355;-76
2021/09/10 04:44:36;;;;;;;;;;;;;;;18.14;70.76;99532.25;3300578;30;19929;-77
2021/09/10 04:46:16;;;;;;;;;;;;;;;18.19;70.63;99537.72;3310483;29;19992;-77
2021/09/10 04:47:57;;;;;;;;;;;;;;;18.23;70.95;99538.88;3310181;29;20046;-76
2021/09/10 04:49:37;;;;;;;;;;;;;;;18.24;70.57;99543.19;3313825;29;19978;-77
2021/09/10 04:51:18;;;;;;;;;;;;;;;18.25;70.51;99534.03;3313968;29;20476;-75
2021/09/10 04:52:59;;;;;;;;;;;;;;;18.27;70.40;99531.88;3319126;29;20373;-75
2021/09/10 04:54:39;;;;;;;;;;;;;;;18.30;70.37;99530.56;3304007;29;19929;-77
2021/09/10 04:56:20;;;;;;;;;;;;;;;18.31;70.35;99529.53;3308162;29;19959;-76
2021/09/10 04:58:00;;;;;;;;;;;;;;;18.33;70.39;99534.66;3313825;29;19964;-77
2021/09/10 04:59:42;;;;;;;;;;;;;;;18.35;70.27;99532.53;3307666;29;20302;-76
2021/09/10 05:01:23;;;;;;;;;;;;;;;18.38;70.28;99537.44;3312705;29;19929;-77
2021/09/10 05:03:04;;;;;;;;;;;;;;;18.42;70.22;99527.78;3306425;29;19936;-77
2021/09/10 05:04:45;;;;;;;;;;;;;;;18.47;70.27;99535.94;3300358;29;19929;-77
2021/09/10 05:06:28;;;;;;;;;;;;;;;18.52;70.39;99533.31;3311575;29;19929;-76
2021/09/10 05:08:08;;;;;;;;;;;;;;;18.59;70.46;99541.22;3315498;29;19937;-77
2021/09/10 05:09:50;;;;;;;;;;;;;;;18.65;70.31;99534.81;3317122;29;20418;-76
2021/09/10 05:11:30;;;;;;;;;;;;;;;18.73;70.40;99537.06;3312459;29;19929;-73
2021/09/10 05:13:11;;;;;;;;;;;;;;;18.80;70.23;99545.03;3308178;29;20331;-77
2021/09/10 05:14:54;;;;;;;;;;;;;;;18.86;70.02;99538.59;3308165;29;20435;-74
2021/09/10 05:16:35;;;;;;;;;;;;;;;18.88;70.11;99542.69;3306819;29;20443;-74
2021/09/10 05:18:15;;;;;;;;;;;;;;;18.92;70.26;99537.56;3300786;29;19970;-74
2021/09/10 05:19:57;;;;;;;;;;;;;;;18.96;69.94;99536.81;3302353;29;19926;-78
2021/09/10 05:21:38;;;;;;;;;;;;;;;19.01;69.95;99536.06;3304979;29;19930;-77
2021/09/10 05:23:19;;;;;;;;;;;;;;;19.07;69.97;99536.94;3312124;29;19932;-76
2021/09/10 05:25:01;;;;;;;;;;;;;;;19.12;69.57;99539.69;3316632;29;19936;-78
2021/09/10 05:26:42;;;;;;;;;;;;;;;19.18;69.90;99536.81;3331287;29;19936;-76
2021/09/10 05:28:22;;;;;;;;;;;;;;;19.25;69.77;99531.16;3321371;29;20001;-75
2021/09/10 05:30:03;;;;;;;;;;;;;;;19.37;69.54;99536.44;3313448;29;19929;-74
2021/09/10 05:31:44;;;;;;;;;;;;;;;19.49;69.10;99536.25;3304637;29;20023;-74
2021/09/10 05:33:24;;;;;;;;;;;;;;;19.57;69.29;99538.50;3311018;29;19932;-74
2021/09/10 05:35:05;;;;;;;;;;;;;;;19.64;68.83;99535.56;3312700;29;19921;-73
2021/09/10 05:36:45;;;;;;;;;;;;;;;19.70;69.01;99543.50;3307235;29;19933;-80
2021/09/10 05:38:26;;;;;;;;;;;;;;;19.72;68.74;99527.84;3302536;29;19936;-75
2021/09/10 05:40:07;;;;;;;;;;;;;;;19.78;68.42;99536.81;3308197;29;19928;-76
2021/09/10 05:41:48;;;;;;;;;;;;;;;19.84;68.17;99538.47;3309856;29;20052;-75
2021/09/10 05:43:28;;;;;;;;;;;;;;;19.93;67.72;99542.34;3307344;29;20393;-76
2021/09/10 05:45:09;;;;;;;;;;;;;;;20.03;67.69;99539.72;3323867;29;19929;-76
2021/09/10 05:46:50;;;;;;;;;;;;;;;20.09;67.11;99529.72;3314979;29;20358;-77
2021/09/10 05:48:31;;;;;;;;;;;;;;;20.30;66.73;99535.25;3312253;29;19944;-77
2021/09/10 05:50:13;;;;;;;;;;;;;;;20.39;66.43;99529.06;3312525;29;19929;-76
2021/09/10 05:51:55;;;;;;;;;;;;;;;20.57;65.90;99538.66;3311983;29;19935;-78
2021/09/10 05:53:39;;;;;;;;;;;;;;;20.67;65.40;99537.88;3311145;29;19933;-75
2021/09/10 05:55:22;;;;;;;;;;;;;;;20.81;65.22;99539.03;3310818;29;19936;-76
2021/09/10 05:57:04;;;;;;;;;;;;;;;20.97;64.70;99539.09;3310716;29;19941;-76
2021/09/10 05:58:45;;;;;;;;;;;;;;;21.10;64.59;99552.13;3311483;29;20417;-76
2021/09/10 06:00:28;;;;;;;;;;;;;;;21.21;64.13;99545.63;3311254;29;19976;-77
2021/09/10 06:02:09;;;;;;;;;;;;;;;21.30;64.17;99538.63;3313526;29;19995;-77
2021/09/10 06:03:50;;;;;;;;;;;;;;;21.36;63.82;99531.28;3312390;29;19971;-77
2021/09/10 06:05:33;;;;;;;;;;;;;;;21.43;63.90;99533.78;3310668;29;19968;-76
2021/09/10 06:07:15;;;;;;;;;;;;;;;21.49;63.46;99540.84;3311758;29;19993;-77
2021/09/10 06:08:55;;;;;;;;;;;;;;;21.58;63.34;99539.19;3311387;29;19929;-76
2021/09/10 06:10:41;;;;;;;;;;;;;;;21.67;63.01;99525.94;3311176;29;19929;-77
2021/09/10 06:12:23;;;;;;;;;;;;;;;21.75;62.76;99531.59;3310126;29;19929;-78
2021/09/10 06:14:04;;;;;;;;;;;;;;;21.91;62.32;99528.88;3311109;29;19948;-74
2021/09/10 06:15:44;;;;;;;;;;;;;;;22.11;62.12;99534.28;3311962;29;19972;-78
2021/09/10 06:17:25;;;;;;;;;;;;;;;22.30;61.82;99544.59;3312019;29;20013;-74
2021/09/10 06:19:05;;;;;;;;;;;;;;;22.52;61.07;99536.91;3314647;29;20313;-78
2021/09/10 06:20:46;;;;;;;;;;;;;;;22.74;60.54;99539.25;3290227;30;19929;-75
2021/09/10 06:22:28;;;;;;;;;;;;;;;23.00;59.96;99540.00;3300274;30;20313;-77
2021/09/10 06:24:08;;;;;;;;;;;;;;;23.21;60.11;99548.84;3311198;29;19936;-76
2021/09/10 06:25:49;;;;;;;;;;;;;;;23.20;59.78;99543.69;3313577;29;19929;-77
2021/09/10 06:27:30;;;;;;;;;;;;;;;23.21;59.40;99545.31;3314061;29;20341;-77
2021/09/10 06:29:11;;;;;;;;;;;;;;;23.37;59.12;99549.56;3311353;29;19960;-77
2021/09/10 06:30:52;;;;;;;;;;;;;;;23.57;59.34;99542.31;3308424;29;19928;-77
2021/09/10 06:32:34;;;;;;;;;;;;;;;23.59;58.97;99551.00;3320852;29;19989;-77
2021/09/10 06:34:19;;;;;;;;;;;;;;;23.50;59.29;99539.94;3315482;29;20423;-77
2021/09/10 06:35:59;;;;;;;;;;;;;;;23.35;59.26;99549.00;3335906;29;20084;-79
2021/09/10 06:37:40;;;;;;;;;;;;;;;23.22;59.31;99546.94;3313544;29;19925;-77
2021/09/10 06:39:20;;;;;;;;;;;;;;;23.09;59.54;99548.38;3311995;29;19929;-80
2021/09/10 06:41:01;;;;;;;;;;;;;;;22.97;59.49;99554.13;3324233;29;19931;-75
2021/09/10 06:42:42;;;;;;;;;;;;;;;22.82;59.82;99554.16;3314535;29;20370;-76
2021/09/10 06:44:23;;;;;;;;;;;;;;;22.68;60.04;99555.88;3312133;29;19929;-77
2021/09/10 06:46:04;;;;;;;;;;;;;;;22.56;60.09;99559.72;3311830;29;19925;-78
2021/09/10 06:47:44;;;;;;;;;;;;;;;22.44;60.51;99553.78;3307090;29;19929;-75
2021/09/10 06:49:25;;;;;;;;;;;;;;;22.34;60.75;99559.25;3312762;29;19936;-74
2021/09/10 06:51:05;;;;;;;;;;;;;;;22.26;60.67;99559.81;3311846;29;19935;-78
2021/09/10 06:52:46;;;;;;;;;;;;;;;22.19;60.59;99557.38;3308803;29;19929;-76
2021/09/10 06:54:27;;;;;;;;;;;;;;;22.13;60.79;99561.97;3308830;29;19981;-75
2021/09/10 06:56:07;;;;;;;;;;;;;;;22.06;60.84;99563.34;3304826;29;19972;-76
2021/09/10 06:57:48;;;;;;;;;;;;;;;21.98;60.70;99564.69;3299262;29;19969;-80
2021/09/10 06:59:31;;;;;;;;;;;;;;;21.91;61.01;99564.97;3303257;29;19936;-77
2021/09/10 07:01:12;;;;;;;;;;;;;;;21.86;61.02;99567.69;3320934;29;20354;-78
2021/09/10 07:02:53;;;;;;;;;;;;;;;21.80;60.81;99573.41;3324494;29;19967;-78
2021/09/10 07:04:35;;;;;;;;;;;;;;;21.74;61.08;99570.69;3330099;29;19933;-79
2021/09/10 07:06:16;;;;;;;;;;;;;;;21.64;61.19;99581.53;3314474;29;20004;-80
2021/09/10 07:07:56;;;;;;;;;;;;;;;21.55;61.22;99580.41;3308685;29;20359;-78
2021/09/10 07:09:39;;;;;;;;;;;;;;;21.49;61.11;99590.44;3307593;29;20346;-78
2021/09/10 07:11:19;;;;;;;;;;;;;;;21.44;61.45;99581.50;3304577;29;19936;-81
2021/09/10 07:13:00;;;;;;;;;;;;;;;21.39;61.59;99584.19;3311667;29;20406;-78
2021/09/10 07:14:41;;;;;;;;;;;;;;;21.35;61.28;99592.84;3312334;29;19944;-79
2021/09/10 07:16:21;;;;;;;;;;;;;;;21.34;61.37;99583.06;3312202;29;20067;-78
2021/09/10 07:18:02;;;;;;;;;;;;;;;21.34;61.58;99593.09;3312617;29;19929;-80
2021/09/10 07:19:43;;;;;;;;;;;;;;;21.29;61.30;99584.97;3312518;29;19929;-78
2021/09/10 07:21:23;;;;;;;;;;;;;;;21.24;61.50;99596.59;3311934;29;20286;-79
2021/09/10 07:23:04;;;;;;;;;;;;;;;21.18;61.49;99588.75;3312183;29;20327;-77
2021/09/10 07:24:44;;;;;;;;;;;;;;;21.13;61.50;99592.25;3313715;29;20301;-80
2021/09/10 07:26:25;;;;;;;;;;;;;;;21.10;61.71;99598.19;3299115;30;19986;-78
2021/09/10 07:28:06;;;;;;;;;;;;;;;21.08;61.40;99600.34;3309805;29;20394;-77
2021/09/10 07:29:47;;;;;;;;;;;;;;;21.04;61.62;99596.53;3314534;29;19940;-78
2021/09/10 07:31:27;;;;;;;;;;;;;;;20.99;61.76;99601.94;3314641;29;21389;-81
2021/09/10 07:33:08;;;;;;;;;;;;;;;20.96;61.56;99603.31;3314900;29;19929;-78
2021/09/10 07:34:48;;;;;;;;;;;;;;;20.95;61.65;99606.28;3315637;29;19929;-79
2021/09/10 07:36:29;;;;;;;;;;;;;;;20.92;61.68;99605.72;3314941;29;19986;-78
2021/09/10 07:38:09;;;;;;;;;;;;;;;20.89;61.66;99608.97;3314583;29;20378;-77
2021/09/10 07:39:49;;;;;;;;;;;;;;;20.89;61.86;99602.72;3314549;29;20317;-78
2021/09/10 07:41:30;;;;;;;;;;;;;;;20.87;61.92;99613.81;3314479;29;19972;-79
2021/09/10 07:43:10;;;;;;;;;;;;;;;20.86;61.97;99614.09;3314761;29;19929;-79
2021/09/10 07:44:51;;;;;;;;;;;;;;;20.82;62.12;99611.09;3313387;29;19936;-77
2021/09/10 07:46:33;;;;;;;;;;;;;;;20.83;62.07;99612.75;3314314;29;19933;-78
2021/09/10 07:48:13;;;;;;;;;;;;;;;20.79;62.13;99614.34;3326171;29;19929;-80
2021/09/10 07:49:54;;;;;;;;;;;;;;;20.77;62.05;99621.09;3317174;29;19929;-78
2021/09/10 07:51:38;;;;;;;;;;;;;;;20.76;62.00;99617.56;3313916;29;19980;-81
2021/09/10 07:53:18;;;;;;;;;;;;;;;20.76;61.99;99620.28;3314647;29;19929;-79
2021/09/10 07:54:59;;;;;;;;;;;;;;;20.74;62.27;99618.91;3314308;29;19932;-78
2021/09/10 07:56:40;;;;;;;;;;;;;;;20.72;62.39;99615.66;3314495;29;19929;-82
2021/09/10 07:58:20;;;;;;;;;;;;;;;20.71;62.40;99617.56;3326317;29;19985;-80
2021/09/10 08:00:01;;;;;;;;;;;;;;;20.73;62.40;99614.56;3326188;29;19976;-77
2021/09/10 08:01:45;;;;;;;;;;;;;;;20.71;62.22;99617.56;3313932;29;19925;-78
2021/09/10 08:03:27;;;;;;;;;;;;;;;20.68;62.40;99618.09;3314874;29;19928;-78
2021/09/10 08:05:08;;;;;;;;;;;;;;;20.67;62.32;99619.94;3314383;29;19925;-75
2021/09/10 08:06:49;;;;;;;;;;;;;;;20.64;62.53;99622.38;3314389;29;20448;-78
2021/09/10 08:08:29;;;;;;;;;;;;;;;20.60;62.50;99615.84;3314547;29;20015;-79
2021/09/10 08:10:14;;;;;;;;;;;;;;;20.59;62.68;99622.34;3315510;29;19929;-78
2021/09/10 08:11:54;;;;;;;;;;;;;;;20.58;62.69;99626.97;3314779;29;20317;-80
2021/09/10 08:13:35;;;;;;;;;;;;;;;20.56;62.61;99623.69;3315778;29;19921;-78
2021/09/10 08:15:16;;;;;;;;;;;;;;;20.54;62.71;99625.84;3315137;29;19973;-78
2021/09/10 08:16:57;;;;;;;;;;;;;;;20.53;63.01;99631.50;3325906;29;20377;-80
2021/09/10 08:18:37;;;;;;;;;;;;;;;20.53;63.07;99636.91;3316534;29;19929;-77
2021/09/10 08:20:18;;;;;;;;;;;;;;;20.50;62.86;99632.84;3325669;29;19975;-79
2021/09/10 08:21:58;;;;;;;;;;;;;;;20.48;63.06;99624.97;3316378;29;19968;-78
2021/09/10 08:23:39;;;;;;;;;;;;;;;20.46;62.98;99637.94;3314282;29;20012;-79
2021/09/10 08:25:20;;;;;;;;;;;;;;;20.47;63.08;99628.75;3314646;29;20462;-80
2021/09/10 08:27:00;;;;;;;;;;;;;;;20.48;63.21;99629.56;3313591;29;19951;-79
2021/09/10 08:28:41;;;;;;;;;;;;;;;20.52;62.92;99635.28;3323081;29;19929;-79
2021/09/10 08:30:21;;;;;;;;;;;;;;;20.55;63.22;99626.66;3316343;29;20043;-80
2021/09/10 08:32:02;;;;;;;;;;;;;;;20.56;62.92;99625.59;3314188;29;19929;-79
2021/09/10 08:33:42;;;;;;;;;;;;;;;20.58;62.87;99639.69;3314525;29;19945;-78
2021/09/10 08:35:23;;;;;;;;;;;;;;;20.59;62.86;99639.41;3315373;29;19986;-79
2021/09/10 08:37:04;;;;;;;;;;;;;;;20.62;63.01;99635.34;3315039;29;19983;-80
2021/09/10 08:38:44;;;;;;;;;;;;;;;20.65;62.80;99643.78;3314740;29;19933;-80
2021/09/10 08:40:25;;;;;;;;;;;;;;;20.67;62.95;99640.81;3314257;29;19933;-78
2021/09/10 08:42:08;;;;;;;;;;;;;;;20.68;62.65;99639.75;3314086;29;20371;-78
2021/09/10 08:43:49;;;;;;;;;;;;;;;20.69;62.88;99636.75;3325724;29;20035;-80
2021/09/10 08:45:30;;;;;;;;;;;;;;;20.71;62.89;99638.41;3317212;29;19929;-79